sensor_id;sensor_type;location;lat;lon;timestamp;pressure;altitude;pressure_sealevel;temperature;humidity
63691;BME280;49837;57.280;27.070;2023-06-22T00:00:31;100175.58;;;14.09;85.42
63691;BME280;49837;57.280;27.070;2023-06-22T00:01:31;100172.78;;;14.05;85.31
63691;BME280;49837;57.280;27.070;2023-06-22T00:02:32;100170.88;;;13.98;86.01
63691;BME280;49837;57.280;27.070;2023-06-22T00:03:32;100168.41;;;13.94;85.85
63691;BME280;49837;57.280;27.070;2023-06-22T00:04:33;100170.47;;;13.89;86.09
63691;BME280;49837;57.280;27.070;2023-06-22T00:05:33;100167.69;;;13.89;86.26
63691;BME280;49837;57.280;27.070;2023-06-22T00:06:33;100168.73;;;13.92;86.08
63691;BME280;49837;57.280;27.070;2023-06-22T00:07:34;100165.66;;;13.91;86.52
63691;BME280;49837;57.280;27.070;2023-06-22T00:08:34;100164.56;;;13.9;86.89
63691;BME280;49837;57.280;27.070;2023-06-22T00:09:36;100163.19;;;13.87;86.57
63691;BME280;49837;57.280;27.070;2023-06-22T00:10:35;100162.86;;;13.82;86.28
63691;BME280;49837;57.280;27.070;2023-06-22T00:11:37;100158.98;;;13.73;86.06
63691;BME280;49837;57.280;27.070;2023-06-22T00:12:36;100163.42;;;13.69;86.25
63691;BME280;49837;57.280;27.070;2023-06-22T00:13:37;100160.55;;;13.68;86.35
63691;BME280;49837;57.280;27.070;2023-06-22T00:14:37;100166.22;;;13.67;86.31
63691;BME280;49837;57.280;27.070;2023-06-22T00:15:39;100155.92;;;13.64;86.61
63691;BME280;49837;57.280;27.070;2023-06-22T00:16:38;100156.55;;;13.66;86.92
63691;BME280;49837;57.280;27.070;2023-06-22T00:17:38;100159.84;;;13.65;86.53
63691;BME280;49837;57.280;27.070;2023-06-22T00:18:39;100153.94;;;13.62;86.86
63691;BME280;49837;57.280;27.070;2023-06-22T00:19:40;100157.42;;;13.55;87.17
63691;BME280;49837;57.280;27.070;2023-06-22T00:20:41;100153.98;;;13.49;87.17
63691;BME280;49837;57.280;27.070;2023-06-22T00:21:41;100156.59;;;13.46;87.33
63691;BME280;49837;57.280;27.070;2023-06-22T00:22:41;100154.37;;;13.48;87.39
63691;BME280;49837;57.280;27.070;2023-06-22T00:23:42;100155.55;;;13.53;87.15
63691;BME280;49837;57.280;27.070;2023-06-22T00:24:42;100159.81;;;13.54;87.63
63691;BME280;49837;57.280;27.070;2023-06-22T00:25:42;100151.85;;;13.52;88.0
63691;BME280;49837;57.280;27.070;2023-06-22T00:26:43;100154.41;;;13.46;88.09
63691;BME280;49837;57.280;27.070;2023-06-22T00:27:43;100153.7;;;13.44;87.61
63691;BME280;49837;57.280;27.070;2023-06-22T00:28:44;100151.8;;;13.38;87.35
63691;BME280;49837;57.280;27.070;2023-06-22T00:29:44;100155.05;;;13.39;87.21
63691;BME280;49837;57.280;27.070;2023-06-22T00:30:45;100153.28;;;13.41;87.09
63691;BME280;49837;57.280;27.070;2023-06-22T00:31:45;100155.2;;;13.48;87.49
63691;BME280;49837;57.280;27.070;2023-06-22T00:32:45;100148.77;;;13.47;87.81
63691;BME280;49837;57.280;27.070;2023-06-22T00:33:46;100149.82;;;13.46;87.74
63691;BME280;49837;57.280;27.070;2023-06-22T00:34:47;100148.64;;;13.43;87.71
63691;BME280;49837;57.280;27.070;2023-06-22T00:35:47;100148.34;;;13.39;87.98
63691;BME280;49837;57.280;27.070;2023-06-22T00:36:47;100148.95;;;13.34;88.45
63691;BME280;49837;57.280;27.070;2023-06-22T00:37:48;100149.38;;;13.32;88.85
63691;BME280;49837;57.280;27.070;2023-06-22T00:38:48;100141.08;;;13.26;88.88
63691;BME280;49837;57.280;27.070;2023-06-22T00:39:48;100145.91;;;13.2;89.05
63691;BME280;49837;57.280;27.070;2023-06-22T00:40:49;100145.05;;;13.19;89.38
63691;BME280;49837;57.280;27.070;2023-06-22T00:41:49;100144.92;;;13.22;89.48
63691;BME280;49837;57.280;27.070;2023-06-22T00:42:50;100144.34;;;13.24;89.28
63691;BME280;49837;57.280;27.070;2023-06-22T00:43:50;100144.89;;;13.23;89.13
63691;BME280;49837;57.280;27.070;2023-06-22T00:44:51;100146.3;;;13.19;89.09
63691;BME280;49837;57.280;27.070;2023-06-22T00:45:51;100142.77;;;13.2;88.73
63691;BME280;49837;57.280;27.070;2023-06-22T00:46:52;100144.72;;;13.23;88.93
63691;BME280;49837;57.280;27.070;2023-06-22T00:47:52;100142.96;;;13.25;89.28
63691;BME280;49837;57.280;27.070;2023-06-22T00:48:52;100139.57;;;13.26;89.91
63691;BME280;49837;57.280;27.070;2023-06-22T00:49:53;100138.14;;;13.28;89.61
63691;BME280;49837;57.280;27.070;2023-06-22T00:50:53;100137.47;;;13.24;89.37
63691;BME280;49837;57.280;27.070;2023-06-22T00:51:54;100136.17;;;13.23;89.88
63691;BME280;49837;57.280;27.070;2023-06-22T00:52:59;100138.71;;;13.2;89.69
63691;BME280;49837;57.280;27.070;2023-06-22T00:53:57;100136.75;;;13.19;89.49
63691;BME280;49837;57.280;27.070;2023-06-22T00:54:58;100141.89;;;13.2;89.39
63691;BME280;49837;57.280;27.070;2023-06-22T00:55:58;100140.89;;;13.21;89.34
63691;BME280;49837;57.280;27.070;2023-06-22T00:56:58;100143.21;;;13.23;89.49
63691;BME280;49837;57.280;27.070;2023-06-22T00:57:59;100144.91;;;13.25;89.42
63691;BME280;49837;57.280;27.070;2023-06-22T00:59:00;100142.27;;;13.23;89.72
63691;BME280;49837;57.280;27.070;2023-06-22T01:00:00;100144.17;;;13.24;89.36
63691;BME280;49837;57.280;27.070;2023-06-22T01:01:00;100142.62;;;13.21;89.12
63691;BME280;49837;57.280;27.070;2023-06-22T01:02:00;100143.61;;;13.2;89.28
63691;BME280;49837;57.280;27.070;2023-06-22T01:03:02;100146.38;;;13.22;89.35
63691;BME280;49837;57.280;27.070;2023-06-22T01:04:01;100148.42;;;13.25;89.63
63691;BME280;49837;57.280;27.070;2023-06-22T01:05:02;100142.45;;;13.25;89.38
63691;BME280;49837;57.280;27.070;2023-06-22T01:06:09;100140.09;;;13.23;89.64
63691;BME280;49837;57.280;27.070;2023-06-22T01:09:15;100135.57;;;13.15;89.43
63691;BME280;49837;57.280;27.070;2023-06-22T01:12:21;100133.74;;;13.13;89.4
63691;BME280;49837;57.280;27.070;2023-06-22T01:14:32;100129.77;;;13.12;89.6
63691;BME280;49837;57.280;27.070;2023-06-22T01:15:35;100129.45;;;13.1;89.33
63691;BME280;49837;57.280;27.070;2023-06-22T01:16:37;100128.09;;;13.07;89.4
63691;BME280;49837;57.280;27.070;2023-06-22T01:17:33;100127.86;;;13.07;89.43
63691;BME280;49837;57.280;27.070;2023-06-22T01:18:35;100125.74;;;13.08;89.27
63691;BME280;49837;57.280;27.070;2023-06-22T01:19:45;100122.55;;;13.06;89.54
63691;BME280;49837;57.280;27.070;2023-06-22T01:20:39;100119.5;;;13.01;89.78
63691;BME280;49837;57.280;27.070;2023-06-22T01:21:39;100120.06;;;12.97;89.98
63691;BME280;49837;57.280;27.070;2023-06-22T01:29:08;100119.94;;;12.92;89.81
63691;BME280;49837;57.280;27.070;2023-06-22T01:30:08;100116.92;;;12.92;89.89
63691;BME280;49837;57.280;27.070;2023-06-22T01:31:10;100123.3;;;12.89;90.0
63691;BME280;49837;57.280;27.070;2023-06-22T01:32:09;100117.77;;;12.81;89.83
63691;BME280;49837;57.280;27.070;2023-06-22T01:33:13;100119.75;;;12.8;89.9
63691;BME280;49837;57.280;27.070;2023-06-22T01:34:11;100120.02;;;12.79;90.14
63691;BME280;49837;57.280;27.070;2023-06-22T01:35:12;100121.97;;;12.76;90.34
63691;BME280;49837;57.280;27.070;2023-06-22T01:36:13;100119.44;;;12.75;90.46
63691;BME280;49837;57.280;27.070;2023-06-22T01:37:13;100118.06;;;12.76;90.73
63691;BME280;49837;57.280;27.070;2023-06-22T01:38:13;100118.7;;;12.81;91.05
63691;BME280;49837;57.280;27.070;2023-06-22T01:39:13;100120.31;;;12.81;91.09
63691;BME280;49837;57.280;27.070;2023-06-22T01:40:15;100114.85;;;12.81;90.91
63691;BME280;49837;57.280;27.070;2023-06-22T01:41:15;100114.66;;;12.8;90.6
63691;BME280;49837;57.280;27.070;2023-06-22T01:42:14;100113.97;;;12.78;90.49
63691;BME280;49837;57.280;27.070;2023-06-22T01:43:15;100111.34;;;12.81;90.4
63691;BME280;49837;57.280;27.070;2023-06-22T01:44:16;100111.33;;;12.81;90.45
63691;BME280;49837;57.280;27.070;2023-06-22T01:45:16;100110.36;;;12.82;90.51
63691;BME280;49837;57.280;27.070;2023-06-22T01:46:17;100109.66;;;12.81;90.54
63691;BME280;49837;57.280;27.070;2023-06-22T01:47:17;100111.48;;;12.84;90.45
63691;BME280;49837;57.280;27.070;2023-06-22T01:48:18;100109.19;;;12.86;90.43
63691;BME280;49837;57.280;27.070;2023-06-22T01:49:18;100105.26;;;12.88;90.36
63691;BME280;49837;57.280;27.070;2023-06-22T01:50:19;100103.88;;;12.93;90.32
63691;BME280;49837;57.280;27.070;2023-06-22T01:51:18;100106.0;;;12.97;89.98
63691;BME280;49837;57.280;27.070;2023-06-22T01:52:19;100106.19;;;12.99;90.0
63691;BME280;49837;57.280;27.070;2023-06-22T01:53:23;100107.59;;;12.99;89.88
63691;BME280;49837;57.280;27.070;2023-06-22T01:54:20;100103.36;;;13.0;89.79
63691;BME280;49837;57.280;27.070;2023-06-22T01:55:21;100106.84;;;13.01;90.0
63691;BME280;49837;57.280;27.070;2023-06-22T01:56:21;100100.37;;;12.98;90.25
63691;BME280;49837;57.280;27.070;2023-06-22T01:57:22;100100.24;;;12.97;90.37
63691;BME280;49837;57.280;27.070;2023-06-22T01:58:25;100101.19;;;12.96;90.4
63691;BME280;49837;57.280;27.070;2023-06-22T02:00:25;100101.02;;;13.05;90.48
63691;BME280;49837;57.280;27.070;2023-06-22T02:01:35;100102.05;;;13.06;90.11
63691;BME280;49837;57.280;27.070;2023-06-22T02:03:34;100099.41;;;13.09;89.6
63691;BME280;49837;57.280;27.070;2023-06-22T02:05:47;100101.52;;;13.09;89.65
63691;BME280;49837;57.280;27.070;2023-06-22T02:06:43;100098.95;;;13.08;89.68
63691;BME280;49837;57.280;27.070;2023-06-22T02:08:59;100101.56;;;13.08;89.96
63691;BME280;49837;57.280;27.070;2023-06-22T02:09:51;100102.36;;;13.08;89.55
63691;BME280;49837;57.280;27.070;2023-06-22T02:10:51;100103.95;;;13.11;89.12
63691;BME280;49837;57.280;27.070;2023-06-22T02:11:52;100102.38;;;13.1;88.93
63691;BME280;49837;57.280;27.070;2023-06-22T02:12:53;100100.98;;;13.09;89.01
63691;BME280;49837;57.280;27.070;2023-06-22T02:13:52;100101.48;;;13.09;89.12
63691;BME280;49837;57.280;27.070;2023-06-22T02:14:52;100100.98;;;13.1;89.26
63691;BME280;49837;57.280;27.070;2023-06-22T02:15:53;100103.3;;;13.12;89.29
63691;BME280;49837;57.280;27.070;2023-06-22T02:16:53;100101.34;;;13.11;89.24
63691;BME280;49837;57.280;27.070;2023-06-22T02:17:54;100106.38;;;13.12;89.04
63691;BME280;49837;57.280;27.070;2023-06-22T02:18:54;100106.93;;;13.11;88.98
63691;BME280;49837;57.280;27.070;2023-06-22T02:19:54;100106.09;;;13.11;88.74
63691;BME280;49837;57.280;27.070;2023-06-22T02:20:55;100106.55;;;13.13;88.51
63691;BME280;49837;57.280;27.070;2023-06-22T02:21:55;100109.8;;;13.13;88.59
63691;BME280;49837;57.280;27.070;2023-06-22T02:22:56;100104.35;;;13.11;88.69
63691;BME280;49837;57.280;27.070;2023-06-22T02:23:56;100104.12;;;13.11;88.81
63691;BME280;49837;57.280;27.070;2023-06-22T02:24:56;100103.64;;;13.12;88.7
63691;BME280;49837;57.280;27.070;2023-06-22T02:25:57;100104.92;;;13.19;88.55
63691;BME280;49837;57.280;27.070;2023-06-22T02:27:01;100105.73;;;13.22;88.31
63691;BME280;49837;57.280;27.070;2023-06-22T02:27:59;100105.36;;;13.23;88.05
63691;BME280;49837;57.280;27.070;2023-06-22T02:29:00;100104.75;;;13.23;88.18
63691;BME280;49837;57.280;27.070;2023-06-22T02:30:00;100102.59;;;13.25;88.4
63691;BME280;49837;57.280;27.070;2023-06-22T02:31:00;100102.57;;;13.28;88.02
63691;BME280;49837;57.280;27.070;2023-06-22T02:32:01;100104.12;;;13.31;88.19
63691;BME280;49837;57.280;27.070;2023-06-22T02:33:01;100106.45;;;13.37;87.93
63691;BME280;49837;57.280;27.070;2023-06-22T02:34:02;100101.97;;;13.36;87.85
63691;BME280;49837;57.280;27.070;2023-06-22T02:35:03;100101.02;;;13.37;88.09
63691;BME280;49837;57.280;27.070;2023-06-22T02:36:03;100098.93;;;13.38;88.11
63691;BME280;49837;57.280;27.070;2023-06-22T02:37:03;100096.14;;;13.39;88.19
63691;BME280;49837;57.280;27.070;2023-06-22T02:38:04;100095.8;;;13.39;88.3
63691;BME280;49837;57.280;27.070;2023-06-22T02:39:04;100094.12;;;13.46;88.03
63691;BME280;49837;57.280;27.070;2023-06-22T02:40:07;100098.73;;;13.52;87.96
63691;BME280;49837;57.280;27.070;2023-06-22T02:41:05;100098.3;;;13.58;87.86
63691;BME280;49837;57.280;27.070;2023-06-22T02:42:06;100099.61;;;13.61;87.93
63691;BME280;49837;57.280;27.070;2023-06-22T02:43:06;100102.67;;;13.64;87.87
63691;BME280;49837;57.280;27.070;2023-06-22T02:44:07;100099.5;;;13.65;87.99
63691;BME280;49837;57.280;27.070;2023-06-22T02:45:08;100100.36;;;13.67;88.17
63691;BME280;49837;57.280;27.070;2023-06-22T02:46:08;100097.88;;;13.7;87.94
63691;BME280;49837;57.280;27.070;2023-06-22T02:47:08;100094.98;;;13.75;87.53
63691;BME280;49837;57.280;27.070;2023-06-22T02:48:08;100101.16;;;13.81;87.41
63691;BME280;49837;57.280;27.070;2023-06-22T02:49:09;100100.31;;;13.81;87.32
63691;BME280;49837;57.280;27.070;2023-06-22T02:50:10;100099.39;;;13.83;87.18
63691;BME280;49837;57.280;27.070;2023-06-22T02:51:10;100099.06;;;13.85;87.04
63691;BME280;49837;57.280;27.070;2023-06-22T02:52:10;100099.48;;;13.88;87.01
63691;BME280;49837;57.280;27.070;2023-06-22T02:53:11;100101.86;;;13.9;86.85
63691;BME280;49837;57.280;27.070;2023-06-22T02:54:11;100103.22;;;13.87;86.71
63691;BME280;49837;57.280;27.070;2023-06-22T02:55:11;100101.75;;;13.9;86.72
63691;BME280;49837;57.280;27.070;2023-06-22T02:56:12;100102.66;;;13.91;86.71
63691;BME280;49837;57.280;27.070;2023-06-22T02:57:12;100102.42;;;13.9;86.82
63691;BME280;49837;57.280;27.070;2023-06-22T02:58:13;100102.88;;;13.92;86.78
63691;BME280;49837;57.280;27.070;2023-06-22T02:59:13;100101.11;;;13.94;86.71
63691;BME280;49837;57.280;27.070;2023-06-22T03:00:14;100102.38;;;13.92;86.76
63691;BME280;49837;57.280;27.070;2023-06-22T03:01:14;100100.86;;;13.95;86.86
63691;BME280;49837;57.280;27.070;2023-06-22T03:02:14;100095.84;;;13.97;86.55
63691;BME280;49837;57.280;27.070;2023-06-22T03:03:15;100095.32;;;14.01;86.3
63691;BME280;49837;57.280;27.070;2023-06-22T03:04:16;100098.34;;;14.06;86.21
63691;BME280;49837;57.280;27.070;2023-06-22T03:05:16;100100.23;;;14.11;85.98
63691;BME280;49837;57.280;27.070;2023-06-22T03:06:16;100097.32;;;14.16;86.02
63691;BME280;49837;57.280;27.070;2023-06-22T03:07:17;100100.11;;;14.26;85.73
63691;BME280;49837;57.280;27.070;2023-06-22T03:08:17;100098.17;;;14.31;85.62
63691;BME280;49837;57.280;27.070;2023-06-22T03:09:18;100098.92;;;14.36;85.45
63691;BME280;49837;57.280;27.070;2023-06-22T03:10:18;100097.07;;;14.38;85.2
63691;BME280;49837;57.280;27.070;2023-06-22T03:11:19;100093.16;;;14.43;85.06
63691;BME280;49837;57.280;27.070;2023-06-22T03:12:19;100099.12;;;14.48;84.82
63691;BME280;49837;57.280;27.070;2023-06-22T03:13:19;100098.62;;;14.5;84.71
63691;BME280;49837;57.280;27.070;2023-06-22T03:14:20;100098.0;;;14.59;84.4
63691;BME280;49837;57.280;27.070;2023-06-22T03:15:21;100098.72;;;14.67;84.06
63691;BME280;49837;57.280;27.070;2023-06-22T03:16:21;100098.38;;;14.77;83.87
63691;BME280;49837;57.280;27.070;2023-06-22T03:17:21;100101.11;;;14.85;83.5
63691;BME280;49837;57.280;27.070;2023-06-22T03:18:22;100101.75;;;14.94;83.18
63691;BME280;49837;57.280;27.070;2023-06-22T03:19:22;100102.56;;;15.1;82.57
63691;BME280;49837;57.280;27.070;2023-06-22T03:20:23;100100.98;;;15.14;82.08
63691;BME280;49837;57.280;27.070;2023-06-22T03:21:23;100098.19;;;15.15;82.07
63691;BME280;49837;57.280;27.070;2023-06-22T03:22:23;100100.7;;;15.17;82.38
63691;BME280;49837;57.280;27.070;2023-06-22T03:23:24;100098.2;;;15.2;82.41
63691;BME280;49837;57.280;27.070;2023-06-22T03:24:24;100098.98;;;15.26;82.23
63691;BME280;49837;57.280;27.070;2023-06-22T03:25:25;100100.23;;;15.31;82.31
63691;BME280;49837;57.280;27.070;2023-06-22T03:26:25;100096.69;;;15.36;81.98
63691;BME280;49837;57.280;27.070;2023-06-22T03:27:26;100098.97;;;15.36;82.1
63691;BME280;49837;57.280;27.070;2023-06-22T03:28:26;100092.13;;;15.37;82.13
63691;BME280;49837;57.280;27.070;2023-06-22T03:29:27;100096.02;;;15.41;82.11
63691;BME280;49837;57.280;27.070;2023-06-22T03:30:27;100095.67;;;15.52;82.03
63691;BME280;49837;57.280;27.070;2023-06-22T03:31:28;100094.05;;;15.67;81.32
63691;BME280;49837;57.280;27.070;2023-06-22T03:32:28;100091.93;;;15.71;80.73
63691;BME280;49837;57.280;27.070;2023-06-22T03:33:29;100094.7;;;15.7;80.84
63691;BME280;49837;57.280;27.070;2023-06-22T03:34:29;100086.75;;;15.74;80.81
63691;BME280;49837;57.280;27.070;2023-06-22T03:35:30;100088.06;;;15.91;80.66
63691;BME280;49837;57.280;27.070;2023-06-22T03:36:30;100087.53;;;16.13;79.73
63691;BME280;49837;57.280;27.070;2023-06-22T03:37:31;100089.35;;;16.24;79.11
63691;BME280;49837;57.280;27.070;2023-06-22T03:38:31;100088.27;;;16.23;78.88
63691;BME280;49837;57.280;27.070;2023-06-22T03:39:32;100085.81;;;16.21;79.0
63691;BME280;49837;57.280;27.070;2023-06-22T03:40:32;100088.47;;;16.34;78.77
63691;BME280;49837;57.280;27.070;2023-06-22T03:41:32;100094.42;;;16.47;78.45
63691;BME280;49837;57.280;27.070;2023-06-22T03:42:35;100086.0;;;16.44;78.28
63691;BME280;49837;57.280;27.070;2023-06-22T03:43:33;100086.66;;;16.4;78.34
63691;BME280;49837;57.280;27.070;2023-06-22T03:44:35;100090.6;;;16.54;78.3
63691;BME280;49837;57.280;27.070;2023-06-22T03:45:34;100088.03;;;16.6;78.0
63691;BME280;49837;57.280;27.070;2023-06-22T03:46:35;100085.86;;;16.8;77.78
63691;BME280;49837;57.280;27.070;2023-06-22T03:47:35;100083.19;;;17.17;76.84
63691;BME280;49837;57.280;27.070;2023-06-22T03:48:36;100085.17;;;17.47;75.26
63691;BME280;49837;57.280;27.070;2023-06-22T03:49:36;100079.92;;;17.66;74.94
63691;BME280;49837;57.280;27.070;2023-06-22T03:50:37;100079.24;;;17.96;73.79
63691;BME280;49837;57.280;27.070;2023-06-22T03:51:37;100080.12;;;18.29;74.03
63691;BME280;49837;57.280;27.070;2023-06-22T03:52:37;100077.41;;;18.9;73.78
63691;BME280;49837;57.280;27.070;2023-06-22T03:53:38;100078.01;;;19.13;70.4
63691;BME280;49837;57.280;27.070;2023-06-22T03:54:38;100081.11;;;19.11;69.5
63691;BME280;49837;57.280;27.070;2023-06-22T03:55:48;100076.25;;;19.14;71.22
63691;BME280;49837;57.280;27.070;2023-06-22T03:56:40;100077.64;;;19.44;69.03
63691;BME280;49837;57.280;27.070;2023-06-22T03:57:41;100077.53;;;19.79;69.98
63691;BME280;49837;57.280;27.070;2023-06-22T03:58:41;100073.71;;;20.01;67.02
63691;BME280;49837;57.280;27.070;2023-06-22T03:59:42;100071.94;;;20.08;66.44
63691;BME280;49837;57.280;27.070;2023-06-22T04:00:42;100071.42;;;19.8;66.43
63691;BME280;49837;57.280;27.070;2023-06-22T04:01:42;100072.12;;;19.82;66.79
63691;BME280;49837;57.280;27.070;2023-06-22T04:02:43;100075.72;;;19.74;67.85
63691;BME280;49837;57.280;27.070;2023-06-22T04:03:43;100074.08;;;19.63;67.7
63691;BME280;49837;57.280;27.070;2023-06-22T04:04:44;100074.7;;;19.53;67.5
63691;BME280;49837;57.280;27.070;2023-06-22T04:05:44;100070.25;;;19.48;68.42
63691;BME280;49837;57.280;27.070;2023-06-22T04:06:44;100071.41;;;19.46;68.91
63691;BME280;49837;57.280;27.070;2023-06-22T04:07:45;100068.32;;;19.45;68.5
63691;BME280;49837;57.280;27.070;2023-06-22T04:08:45;100067.0;;;19.18;68.57
63691;BME280;49837;57.280;27.070;2023-06-22T04:09:46;100064.59;;;18.94;69.93
63691;BME280;49837;57.280;27.070;2023-06-22T04:10:46;100063.7;;;18.86;70.67
63691;BME280;49837;57.280;27.070;2023-06-22T04:11:46;100063.66;;;18.91;71.07
63691;BME280;49837;57.280;27.070;2023-06-22T04:12:47;100064.48;;;19.05;69.92
63691;BME280;49837;57.280;27.070;2023-06-22T04:13:47;100063.47;;;19.07;69.55
63691;BME280;49837;57.280;27.070;2023-06-22T04:14:48;100066.42;;;18.98;69.89
63691;BME280;49837;57.280;27.070;2023-06-22T04:15:48;100061.33;;;18.97;70.38
63691;BME280;49837;57.280;27.070;2023-06-22T04:16:48;100063.12;;;19.01;70.36
63691;BME280;49837;57.280;27.070;2023-06-22T04:17:49;100061.02;;;19.05;70.92
63691;BME280;49837;57.280;27.070;2023-06-22T04:18:49;100059.98;;;19.22;70.19
63691;BME280;49837;57.280;27.070;2023-06-22T04:19:50;100058.67;;;19.27;70.19
63691;BME280;49837;57.280;27.070;2023-06-22T04:20:50;100057.73;;;19.31;69.92
63691;BME280;49837;57.280;27.070;2023-06-22T04:21:50;100056.7;;;19.23;69.71
63691;BME280;49837;57.280;27.070;2023-06-22T04:22:52;100058.42;;;19.2;70.02
63691;BME280;49837;57.280;27.070;2023-06-22T04:23:51;100057.38;;;19.23;71.02
63691;BME280;49837;57.280;27.070;2023-06-22T04:24:52;100053.75;;;19.33;70.43
63691;BME280;49837;57.280;27.070;2023-06-22T04:25:52;100057.01;;;19.48;69.94
63691;BME280;49837;57.280;27.070;2023-06-22T04:26:52;100054.14;;;19.65;69.57
63691;BME280;49837;57.280;27.070;2023-06-22T04:27:53;100052.27;;;19.73;69.13
63691;BME280;49837;57.280;27.070;2023-06-22T04:28:53;100049.39;;;19.78;69.71
63691;BME280;49837;57.280;27.070;2023-06-22T04:29:53;100048.67;;;19.81;69.01
63691;BME280;49837;57.280;27.070;2023-06-22T04:30:54;100050.23;;;19.79;69.75
63691;BME280;49837;57.280;27.070;2023-06-22T04:31:55;100045.89;;;19.75;69.3
63691;BME280;49837;57.280;27.070;2023-06-22T04:32:55;100045.67;;;19.78;69.35
63691;BME280;49837;57.280;27.070;2023-06-22T04:33:55;100045.28;;;19.85;68.73
63691;BME280;49837;57.280;27.070;2023-06-22T04:34:55;100043.43;;;19.72;69.2
63691;BME280;49837;57.280;27.070;2023-06-22T04:35:56;100042.94;;;19.72;69.2
63691;BME280;49837;57.280;27.070;2023-06-22T04:36:57;100043.68;;;19.79;68.76
63691;BME280;49837;57.280;27.070;2023-06-22T04:37:58;100042.3;;;19.85;68.76
63691;BME280;49837;57.280;27.070;2023-06-22T04:38:57;100040.84;;;19.98;68.47
63691;BME280;49837;57.280;27.070;2023-06-22T04:39:57;100039.95;;;20.04;67.84
63691;BME280;49837;57.280;27.070;2023-06-22T04:40:58;100036.53;;;20.06;68.11
63691;BME280;49837;57.280;27.070;2023-06-22T04:41:58;100036.42;;;20.13;67.73
63691;BME280;49837;57.280;27.070;2023-06-22T04:42:59;100036.82;;;20.24;68.56
63691;BME280;49837;57.280;27.070;2023-06-22T04:43:59;100032.7;;;20.38;67.36
63691;BME280;49837;57.280;27.070;2023-06-22T04:44:59;100030.86;;;20.38;67.15
63691;BME280;49837;57.280;27.070;2023-06-22T04:46:00;100031.2;;;20.38;67.59
63691;BME280;49837;57.280;27.070;2023-06-22T04:47:01;100028.09;;;20.41;67.72
63691;BME280;49837;57.280;27.070;2023-06-22T04:48:01;100032.27;;;20.4;67.14
63691;BME280;49837;57.280;27.070;2023-06-22T04:49:01;100033.34;;;20.53;67.04
63691;BME280;49837;57.280;27.070;2023-06-22T04:50:02;100030.72;;;20.55;67.31
63691;BME280;49837;57.280;27.070;2023-06-22T04:51:02;100030.19;;;20.56;67.09
63691;BME280;49837;57.280;27.070;2023-06-22T04:52:07;100028.48;;;20.67;66.87
63691;BME280;49837;57.280;27.070;2023-06-22T04:53:05;100028.8;;;20.82;66.38
63691;BME280;49837;57.280;27.070;2023-06-22T04:54:05;100023.25;;;20.91;65.86
63691;BME280;49837;57.280;27.070;2023-06-22T04:55:07;100018.31;;;20.87;66.93
63691;BME280;49837;57.280;27.070;2023-06-22T04:56:06;100018.2;;;20.92;65.5
63691;BME280;49837;57.280;27.070;2023-06-22T04:57:07;100019.18;;;20.94;65.56
63691;BME280;49837;57.280;27.070;2023-06-22T04:58:07;100018.33;;;21.01;65.56
63691;BME280;49837;57.280;27.070;2023-06-22T04:59:07;100016.56;;;21.07;65.51
63691;BME280;49837;57.280;27.070;2023-06-22T05:00:09;100021.2;;;21.16;64.6
63691;BME280;49837;57.280;27.070;2023-06-22T05:01:08;100018.2;;;21.21;64.61
63691;BME280;49837;57.280;27.070;2023-06-22T05:02:09;100019.78;;;21.3;65.06
63691;BME280;49837;57.280;27.070;2023-06-22T05:03:09;100019.5;;;21.38;64.47
63691;BME280;49837;57.280;27.070;2023-06-22T05:04:11;100017.44;;;21.39;64.08
63691;BME280;49837;57.280;27.070;2023-06-22T05:05:12;100015.05;;;21.58;63.93
63691;BME280;49837;57.280;27.070;2023-06-22T05:06:12;100010.05;;;21.71;63.31
63691;BME280;49837;57.280;27.070;2023-06-22T05:07:12;100013.59;;;21.79;62.74
63691;BME280;49837;57.280;27.070;2023-06-22T05:08:13;100009.57;;;21.79;62.88
63691;BME280;49837;57.280;27.070;2023-06-22T05:09:13;100008.25;;;21.67;63.52
63691;BME280;49837;57.280;27.070;2023-06-22T05:10:13;100009.09;;;21.61;63.75
63691;BME280;49837;57.280;27.070;2023-06-22T05:11:14;100007.59;;;21.65;63.06
63691;BME280;49837;57.280;27.070;2023-06-22T05:12:14;100005.01;;;21.63;62.38
63691;BME280;49837;57.280;27.070;2023-06-22T05:13:14;100007.22;;;21.54;62.6
63691;BME280;49837;57.280;27.070;2023-06-22T05:14:15;100003.62;;;21.5;62.17
63691;BME280;49837;57.280;27.070;2023-06-22T05:15:16;100000.52;;;21.6;62.14
63691;BME280;49837;57.280;27.070;2023-06-22T05:16:16;100003.75;;;21.55;61.97
63691;BME280;49837;57.280;27.070;2023-06-22T05:17:16;99999.83;;;21.52;62.11
63691;BME280;49837;57.280;27.070;2023-06-22T05:18:17;100002.62;;;21.5;61.92
63691;BME280;49837;57.280;27.070;2023-06-22T05:19:17;99995.27;;;21.63;62.07
63691;BME280;49837;57.280;27.070;2023-06-22T05:20:17;100000.58;;;21.82;61.64
63691;BME280;49837;57.280;27.070;2023-06-22T05:21:18;99995.58;;;22.01;61.34
63691;BME280;49837;57.280;27.070;2023-06-22T05:22:18;99998.3;;;22.13;61.28
63691;BME280;49837;57.280;27.070;2023-06-22T05:23:19;99993.83;;;22.31;61.22
63691;BME280;49837;57.280;27.070;2023-06-22T05:24:19;99992.06;;;22.42;60.48
63691;BME280;49837;57.280;27.070;2023-06-22T05:25:20;99988.64;;;22.53;60.35
63691;BME280;49837;57.280;27.070;2023-06-22T05:26:21;99984.87;;;22.5;60.28
63691;BME280;49837;57.280;27.070;2023-06-22T05:27:20;99983.11;;;22.61;59.76
63691;BME280;49837;57.280;27.070;2023-06-22T05:28:21;99981.5;;;22.75;59.84
63691;BME280;49837;57.280;27.070;2023-06-22T05:29:21;99976.25;;;23.0;58.71